createdAt,value
2019-04-06T00:04:26.728Z,99992.00
2019-04-06T00:09:22.237Z,99987.94
2019-04-06T00:14:15.869Z,99987.63
2019-04-06T00:19:09.552Z,99991.25
2019-04-06T00:24:03.204Z,99981.66
2019-04-06T00:28:56.883Z,99984.42
2019-04-06T00:33:50.528Z,99983.91
2019-04-06T00:38:44.109Z,99975.31
2019-04-06T00:43:37.582Z,99979.69
2019-04-06T00:48:31.351Z,99974.83
2019-04-06T00:53:25.057Z,99978.31
2019-04-06T00:58:18.638Z,99984.80
2019-04-06T01:03:12.385Z,99967.84
2019-04-06T01:08:06.610Z,99970.58
2019-04-06T01:13:00.312Z,99967.25
2019-04-06T01:17:54.101Z,99961.70
2019-04-06T01:22:47.761Z,99964.56
2019-04-06T01:27:41.609Z,99965.07
2019-04-06T01:32:35.416Z,99968.16
2019-04-06T01:37:29.122Z,99960.45
2019-04-06T01:42:22.859Z,99957.68
2019-04-06T01:47:16.565Z,99957.06
2019-04-06T01:52:09.912Z,99956.44
2019-04-06T01:57:03.309Z,99947.37
2019-04-06T02:02:00.449Z,99951.80
2019-04-06T02:06:53.730Z,99945.14
2019-04-06T02:11:47.618Z,99940.33
2019-04-06T02:16:41.345Z,99941.88
2019-04-06T02:21:35.030Z,99945.78
2019-04-06T02:26:30.688Z,99945.25
2019-04-06T02:31:42.535Z,99945.73
2019-04-06T02:36:58.546Z,99947.27
2019-04-06T02:41:58.479Z,99950.45
2019-04-06T02:46:52.210Z,99954.28
2019-04-06T02:51:45.974Z,99950.58
2019-04-06T02:56:46.637Z,99956.31
2019-04-06T03:01:35.665Z,99952.29
2019-04-06T03:06:29.652Z,99950.84
2019-04-06T03:11:23.468Z,99956.66
2019-04-06T03:16:17.476Z,99951.98
2019-04-06T03:21:10.674Z,99955.87
2019-04-06T03:26:04.400Z,99952.70
2019-04-06T03:30:58.460Z,99953.60
2019-04-06T03:35:52.598Z,99950.98
2019-04-06T03:40:46.496Z,99954.98
2019-04-06T03:45:40.372Z,99961.23
2019-04-06T03:50:33.810Z,99957.24
2019-04-06T03:55:27.512Z,99958.13
2019-04-06T04:00:21.082Z,99952.07
2019-04-06T04:05:14.342Z,99956.63
2019-04-06T04:10:08.439Z,99958.11
2019-04-06T04:15:02.102Z,99952.75
2019-04-06T04:19:55.810Z,99954.35
2019-04-06T04:24:49.412Z,99958.47
2019-04-06T04:29:43.091Z,99955.59
2019-04-06T04:34:36.657Z,99964.02
2019-04-06T04:39:30.151Z,99955.23
2019-04-06T04:44:23.629Z,99967.32
2019-04-06T04:49:17.305Z,99965.50
2019-04-06T04:54:10.795Z,99964.76
2019-04-06T04:59:04.190Z,99969.79
2019-04-06T05:03:57.859Z,99976.02
2019-04-06T05:08:51.561Z,99980.31
2019-04-06T05:13:47.342Z,99975.05
2019-04-06T05:18:41.730Z,99994.16
2019-04-06T05:23:35.669Z,99992.12
2019-04-06T05:28:29.136Z,99994.30
2019-04-06T05:33:22.832Z,99997.02
2019-04-06T05:38:16.412Z,99996.16
2019-04-06T05:43:09.978Z,99999.39
2019-04-06T05:48:03.569Z,100004.06
2019-04-06T05:52:57.137Z,100007.91
2019-04-06T05:57:50.716Z,100007.88
2019-04-06T06:02:46.052Z,100017.05
2019-04-06T06:07:39.644Z,100021.08
2019-04-06T06:12:33.331Z,100016.36
2019-04-06T06:17:26.610Z,100017.16
2019-04-06T06:22:20.165Z,100018.09
2019-04-06T06:27:13.972Z,100024.77
2019-04-06T06:32:07.490Z,100028.02
2019-04-06T06:37:01.040Z,100027.49
2019-04-06T06:41:54.608Z,100022.12
2019-04-06T06:46:48.301Z,100027.39
2019-04-06T06:51:41.981Z,100029.30
2019-04-06T06:56:35.574Z,100020.84
2019-04-06T07:01:29.258Z,100018.09
2019-04-06T07:06:22.827Z,100017.33
2019-04-06T07:11:16.500Z,100010.45
2019-04-06T07:16:10.187Z,100011.15
2019-04-06T07:21:04.100Z,100008.67
2019-04-06T07:25:59.081Z,100010.37
2019-04-06T07:30:52.343Z,100013.95
2019-04-06T07:35:45.416Z,100017.08
2019-04-06T07:40:38.666Z,100014.90
2019-04-06T07:45:31.841Z,100016.45
2019-04-06T08:02:51.790Z,100011.09
2019-04-06T08:07:45.484Z,100016.47
2019-04-06T08:12:38.606Z,100016.69
2019-04-06T08:17:31.913Z,100010.77
2019-04-06T08:22:25.629Z,100004.71
2019-04-06T08:27:18.977Z,99999.52
2019-04-06T08:32:12.147Z,99996.95
2019-04-06T08:37:05.830Z,99993.22
2019-04-06T08:41:59.091Z,100000.57
2019-04-06T08:46:52.592Z,99990.53
2019-04-06T08:51:46.251Z,99984.81
2019-04-06T08:56:39.342Z,99986.41
2019-04-06T09:01:32.646Z,99983.97
2019-04-06T09:06:25.835Z,99992.55
2019-04-06T09:11:19.022Z,99982.06
2019-04-06T09:16:12.204Z,99986.63
2019-04-06T09:21:05.390Z,99972.69
2019-04-06T09:25:58.457Z,99961.63
2019-04-06T09:30:51.851Z,99960.60
2019-04-06T09:35:45.031Z,99963.73
2019-04-06T09:40:38.197Z,99960.06
2019-04-06T09:45:50.863Z,99966.59
2019-04-06T09:51:06.412Z,99959.70
2019-04-06T09:56:28.092Z,99948.27
2019-04-06T10:01:39.456Z,99949.26
2019-04-06T10:06:38.649Z,99950.47
2019-04-06T10:11:43.005Z,99953.42
2019-04-06T10:16:54.735Z,99952.57
2019-04-06T10:22:06.182Z,99954.73
2019-04-06T10:27:33.822Z,99951.61
2019-04-06T10:32:39.364Z,99945.89
2019-04-06T10:38:01.041Z,99928.39
2019-04-06T10:43:31.854Z,99937.18
2019-04-06T10:48:43.985Z,99926.16
2019-04-06T10:54:06.295Z,99919.94
2019-04-06T10:59:18.498Z,99929.25
2019-04-06T11:04:31.287Z,99922.25
2019-04-06T11:09:42.736Z,99917.14
2019-04-06T11:15:07.417Z,99907.69
2019-04-06T11:20:20.046Z,99912.79
2019-04-06T11:25:28.812Z,99908.84
2019-04-06T11:30:29.060Z,99900.45
2019-04-06T11:35:45.083Z,99896.98
2019-04-06T11:40:53.642Z,99885.16
2019-04-06T11:45:59.373Z,99882.05
2019-04-06T11:51:18.172Z,99870.89
2019-04-06T11:56:24.000Z,99877.05
2019-04-06T12:01:40.369Z,99874.19
2019-04-06T12:06:44.704Z,99870.64
2019-04-06T12:12:07.160Z,99859.77
2019-04-06T12:17:20.614Z,99856.23
2019-04-06T12:22:24.027Z,99867.75
2019-04-06T12:27:39.503Z,99865.86
2019-04-06T12:33:04.330Z,99862.58
2019-04-06T12:38:39.903Z,99848.25
2019-04-06T12:43:55.212Z,99846.09
2019-04-06T12:49:13.793Z,99849.62
2019-04-06T12:54:26.292Z,99845.80
2019-04-06T12:59:30.420Z,99828.35
2019-04-06T13:04:46.841Z,99832.48
2019-04-06T13:10:00.184Z,99826.20
2019-04-06T13:15:25.897Z,99805.30
2019-04-06T13:20:42.651Z,99808.98
2019-04-06T13:26:08.699Z,99800.14
2019-04-06T13:31:15.476Z,99823.63
2019-04-06T13:36:21.962Z,99823.45
2019-04-06T13:41:42.377Z,99827.73
2019-04-06T13:47:11.201Z,99823.56
2019-04-06T13:52:13.355Z,99816.88
2019-04-06T13:57:35.454Z,99814.12
2019-04-06T14:02:44.836Z,99823.45
2019-04-06T14:07:54.421Z,99832.53
2019-04-06T14:13:06.313Z,99834.23
2019-04-06T14:18:26.520Z,99832.55
2019-04-06T14:23:38.298Z,99835.25
2019-04-06T14:28:51.894Z,99835.00
2019-04-06T14:34:17.076Z,99832.64
2019-04-06T14:39:48.288Z,99836.70
2019-04-06T14:45:00.305Z,99826.03
2019-04-06T14:50:07.182Z,99829.65
2019-04-06T14:55:19.031Z,99832.34
2019-04-06T15:00:38.365Z,99828.80
2019-04-06T15:05:55.829Z,99824.94
2019-04-06T15:11:08.848Z,99825.16
2019-04-06T15:16:24.988Z,99827.93
2019-04-06T15:21:46.833Z,99826.34
2019-04-06T15:27:02.837Z,99826.28
2019-04-06T15:32:14.748Z,99827.97
2019-04-06T15:37:13.185Z,99831.72
2019-04-06T15:42:19.882Z,99811.49
2019-04-06T15:47:45.548Z,99813.92
2019-04-06T15:52:54.000Z,99816.23
2019-04-06T15:58:07.240Z,99817.41
2019-04-06T16:03:26.227Z,99817.14
2019-04-06T16:08:45.626Z,99820.31
2019-04-06T16:14:04.297Z,99819.77
2019-04-06T16:19:08.397Z,99822.61
2019-04-06T16:24:29.922Z,99817.44
2019-04-06T16:29:35.426Z,99814.53
2019-04-06T16:34:53.811Z,99817.87
2019-04-06T16:40:04.860Z,99806.85
2019-04-06T16:45:10.422Z,99810.98
2019-04-06T16:50:26.575Z,99812.02
2019-04-06T16:55:48.808Z,99813.96
2019-04-06T17:01:01.647Z,99819.73
2019-04-06T17:06:23.789Z,99816.14
2019-04-06T17:11:34.887Z,99819.51
2019-04-06T17:17:02.865Z,99818.70
2019-04-06T17:22:21.218Z,99822.51
2019-04-06T17:27:32.334Z,99819.79
2019-04-06T17:32:41.274Z,99821.60
2019-04-06T17:37:56.795Z,99826.50
2019-04-06T17:43:09.594Z,99830.93
2019-04-06T17:48:34.303Z,99831.75
2019-04-06T17:53:53.730Z,99838.47
2019-04-06T17:59:09.939Z,99847.58
2019-04-06T18:04:29.387Z,99845.16
2019-04-06T18:09:45.908Z,99850.79
2019-04-06T18:14:39.526Z,99853.23
2019-04-06T18:19:34.681Z,99843.31
2019-04-06T18:24:27.935Z,99844.43
2019-04-06T18:29:21.613Z,99850.97
2019-04-06T18:34:15.472Z,99853.06
2019-04-06T18:39:09.645Z,99851.45
2019-04-06T18:44:02.829Z,99850.95
2019-04-06T18:48:56.691Z,99856.00
2019-04-06T18:53:50.338Z,99851.90
2019-04-06T18:58:43.764Z,99859.16
2019-04-06T19:03:37.064Z,99858.30
2019-04-06T19:08:30.842Z,99861.33
2019-04-06T19:13:25.066Z,99866.09
2019-04-06T19:18:19.135Z,99861.75
2019-04-06T19:23:12.798Z,99866.78
2019-04-06T19:28:06.573Z,99865.95
2019-04-06T19:33:00.485Z,99866.86
2019-04-06T19:37:59.631Z,99875.55
2019-04-06T19:42:53.754Z,99874.52
2019-04-06T19:47:47.310Z,99872.05
2019-04-06T19:52:40.942Z,99873.24
2019-04-06T19:57:35.153Z,99871.04
2019-04-06T20:02:28.830Z,99872.31
2019-04-06T20:07:22.170Z,99877.79
2019-04-06T20:12:15.902Z,99873.16
2019-04-06T20:17:09.490Z,99876.20
2019-04-06T20:22:03.141Z,99878.59
2019-04-06T20:26:56.815Z,99870.34
2019-04-06T20:31:50.748Z,99871.22
2019-04-06T20:36:44.306Z,99865.94
2019-04-06T20:41:37.436Z,99858.94
2019-04-06T20:46:31.050Z,99861.35
2019-04-06T20:51:24.252Z,99860.45
2019-04-06T20:56:17.730Z,99855.44
2019-04-06T21:01:14.656Z,99857.23
2019-04-06T21:06:08.619Z,99860.31
2019-04-06T21:11:03.616Z,99856.42
2019-04-06T21:15:58.790Z,99849.16
2019-04-06T21:20:53.268Z,99852.26
2019-04-06T21:25:47.520Z,99845.23
2019-04-06T21:30:41.078Z,99850.57
2019-04-06T21:35:35.193Z,99844.82
2019-04-06T21:40:31.706Z,99845.45
2019-04-06T21:45:26.122Z,99848.04
2019-04-06T21:50:19.360Z,99849.14
2019-04-06T21:55:17.442Z,99848.25
2019-04-06T22:00:13.395Z,99849.80
2019-04-06T22:05:07.062Z,99847.87
2019-04-06T22:10:00.156Z,99848.46
2019-04-06T22:14:53.330Z,99846.46
2019-04-06T22:19:47.225Z,99844.47
2019-04-06T22:24:40.731Z,99847.94
2019-04-06T22:29:36.476Z,99843.98
2019-04-06T22:34:38.735Z,99848.03
2019-04-06T22:39:24.838Z,99846.63
2019-04-06T22:44:18.246Z,99842.47
2019-04-06T22:49:12.314Z,99847.49
2019-04-06T22:54:05.991Z,99843.53
2019-04-06T22:58:59.486Z,99837.79
2019-04-06T23:04:31.075Z,99831.16
2019-04-06T23:09:24.848Z,99829.19
2019-04-06T23:14:18.336Z,99829.45
2019-04-06T23:19:12.096Z,99825.27
2019-04-06T23:24:05.808Z,99822.14
2019-04-06T23:28:59.596Z,99808.73
2019-04-06T23:33:53.044Z,99812.94
2019-04-06T23:38:46.123Z,99811.64
2019-04-06T23:43:39.207Z,99807.31
2019-04-06T23:48:32.544Z,99806.56
2019-04-06T23:53:25.794Z,99810.83
2019-04-06T23:58:18.906Z,99804.97
